createdAt,value
2022-08-31T00:01:36.694Z,100.00
2022-08-31T00:04:05.288Z,100.00
2022-08-31T00:06:35.357Z,100.00
2022-08-31T00:09:04.775Z,100.00
2022-08-31T00:11:36.258Z,100.00
2022-08-31T00:14:13.041Z,100.00
2022-08-31T00:16:44.249Z,100.00
2022-08-31T00:19:13.622Z,100.00
2022-08-31T00:21:41.468Z,100.00
2022-08-31T00:24:14.479Z,100.00
2022-08-31T00:26:43.194Z,100.00
2022-08-31T00:29:13.248Z,100.00
2022-08-31T00:31:41.325Z,100.00
2022-08-31T00:34:09.376Z,100.00
2022-08-31T00:36:37.737Z,100.00
2022-08-31T00:39:06.369Z,100.00
2022-08-31T00:41:38.255Z,100.00
2022-08-31T00:44:10.261Z,100.00
2022-08-31T00:46:42.595Z,98.49
2022-08-31T00:49:18.388Z,97.70
2022-08-31T00:51:59.098Z,99.33
2022-08-31T00:54:34.116Z,99.56
2022-08-31T00:57:03.943Z,100.00
2022-08-31T00:59:31.726Z,100.00
2022-08-31T01:01:59.906Z,100.00
2022-08-31T01:06:55.676Z,100.00
2022-08-31T01:09:27.685Z,100.00
2022-08-31T01:11:55.595Z,100.00
2022-08-31T01:14:23.214Z,100.00
2022-08-31T01:16:55.085Z,100.00
2022-08-31T01:19:57.810Z,100.00
2022-08-31T01:22:39.579Z,100.00
2022-08-31T01:25:08.457Z,100.00
2022-08-31T01:27:37.893Z,100.00
2022-08-31T01:30:10.834Z,99.70
2022-08-31T01:32:40.226Z,100.00
2022-08-31T01:35:11.648Z,100.00
2022-08-31T01:37:39.931Z,98.32
2022-08-31T01:40:09.986Z,98.25
2022-08-31T01:42:37.995Z,99.18
2022-08-31T01:45:08.000Z,98.66
2022-08-31T01:47:35.674Z,99.53
2022-08-31T01:50:03.529Z,100.00
2022-08-31T01:52:34.146Z,100.00
2022-08-31T01:55:03.677Z,99.95
2022-08-31T01:57:34.046Z,98.02
2022-08-31T02:00:17.495Z,98.91
2022-08-31T02:02:47.590Z,98.26
2022-08-31T02:05:15.576Z,98.63
2022-08-31T02:07:45.676Z,98.23
2022-08-31T02:10:14.131Z,98.58
2022-08-31T02:12:41.821Z,96.22
2022-08-31T02:15:11.015Z,98.78
2022-08-31T02:17:38.821Z,100.00
2022-08-31T02:20:10.805Z,100.00
2022-08-31T02:22:38.720Z,100.00
2022-08-31T02:25:08.534Z,100.00
2022-08-31T02:27:40.043Z,100.00
2022-08-31T02:30:17.478Z,100.00
2022-08-31T02:32:45.705Z,100.00
2022-08-31T02:35:14.244Z,100.00
2022-08-31T02:37:45.420Z,100.00
2022-08-31T02:40:15.220Z,100.00
2022-08-31T02:42:52.173Z,100.00
2022-08-31T02:45:24.761Z,100.00
2022-08-31T02:47:55.224Z,100.00
2022-08-31T02:50:28.132Z,100.00
2022-08-31T02:52:56.944Z,100.00
2022-08-31T02:55:27.631Z,100.00
2022-08-31T02:57:57.996Z,100.00
2022-08-31T03:00:25.891Z,100.00
2022-08-31T03:02:55.030Z,100.00
2022-08-31T03:05:23.807Z,100.00
2022-08-31T03:07:52.401Z,100.00
2022-08-31T03:10:24.099Z,100.00
2022-08-31T03:12:54.069Z,100.00
2022-08-31T03:15:25.232Z,100.00
2022-08-31T03:17:53.139Z,100.00
2022-08-31T03:20:25.421Z,100.00
2022-08-31T03:22:54.858Z,100.00
2022-08-31T03:25:23.754Z,100.00
2022-08-31T03:27:52.276Z,100.00
2022-08-31T03:30:22.908Z,100.00
2022-08-31T03:33:04.347Z,100.00
2022-08-31T03:35:33.888Z,100.00
2022-08-31T03:38:05.526Z,100.00
2022-08-31T03:40:33.548Z,100.00
2022-08-31T03:43:02.602Z,100.00
2022-08-31T03:45:32.093Z,100.00
2022-08-31T03:48:00.259Z,100.00
2022-08-31T03:50:28.078Z,100.00
2022-08-31T03:53:05.809Z,100.00
2022-08-31T03:55:36.386Z,100.00
2022-08-31T03:58:06.151Z,100.00
2022-08-31T04:00:34.922Z,100.00
2022-08-31T04:03:23.403Z,100.00
2022-08-31T04:06:26.291Z,100.00
2022-08-31T04:09:13.147Z,100.00
2022-08-31T04:12:00.928Z,100.00
2022-08-31T04:15:09.178Z,100.00
2022-08-31T04:17:48.812Z,100.00
2022-08-31T04:20:40.811Z,100.00
2022-08-31T04:23:09.886Z,100.00
2022-08-31T04:25:42.795Z,100.00
2022-08-31T04:28:33.454Z,100.00
2022-08-31T04:31:09.997Z,100.00
2022-08-31T04:33:40.023Z,100.00
2022-08-31T04:36:17.023Z,100.00
2022-08-31T04:38:50.400Z,100.00
2022-08-31T04:41:22.457Z,100.00
2022-08-31T04:43:55.349Z,98.71
2022-08-31T04:46:24.666Z,99.32
2022-08-31T04:48:56.267Z,97.95
2022-08-31T04:51:28.557Z,97.34
2022-08-31T04:53:57.037Z,97.52
2022-08-31T04:56:29.519Z,98.26
2022-08-31T04:59:07.933Z,98.84
2022-08-31T05:01:45.487Z,98.90
2022-08-31T05:04:48.189Z,98.30
2022-08-31T05:07:16.929Z,99.03
2022-08-31T05:09:44.883Z,100.00
2022-08-31T05:12:12.400Z,100.00
2022-08-31T05:14:40.275Z,100.00
2022-08-31T05:17:18.581Z,99.70
2022-08-31T05:19:46.339Z,98.96
2022-08-31T05:22:15.974Z,95.90
2022-08-31T05:24:45.022Z,94.43
2022-08-31T05:27:13.562Z,92.82
2022-08-31T05:29:41.994Z,92.86
2022-08-31T05:32:29.573Z,90.41
2022-08-31T05:35:00.346Z,90.34
2022-08-31T05:37:28.148Z,90.61
2022-08-31T05:39:57.312Z,88.53
2022-08-31T05:42:25.379Z,87.28
2022-08-31T05:44:52.990Z,86.15
2022-08-31T05:47:20.681Z,85.77
2022-08-31T05:49:48.505Z,85.98
2022-08-31T05:52:20.067Z,84.56
2022-08-31T05:54:53.270Z,82.25
2022-08-31T05:57:25.852Z,82.65
2022-08-31T05:59:55.299Z,81.78
2022-08-31T06:02:27.613Z,80.56
2022-08-31T06:04:58.435Z,79.84
2022-08-31T06:07:26.622Z,77.83
2022-08-31T06:09:59.047Z,74.63
2022-08-31T06:12:27.609Z,70.73
2022-08-31T06:14:56.148Z,72.95
2022-08-31T06:17:24.533Z,72.75
2022-08-31T06:19:52.422Z,72.86
2022-08-31T06:22:20.384Z,71.44
2022-08-31T06:25:10.683Z,70.95
2022-08-31T06:27:38.805Z,71.28
2022-08-31T06:30:08.158Z,68.78
2022-08-31T06:32:35.789Z,68.91
2022-08-31T06:35:09.037Z,70.92
2022-08-31T06:37:56.289Z,71.02
2022-08-31T06:40:42.275Z,69.62
2022-08-31T06:43:46.370Z,69.89
2022-08-31T06:46:23.640Z,69.35
2022-08-31T06:49:05.615Z,70.48
2022-08-31T06:51:38.413Z,63.72
2022-08-31T06:54:27.987Z,64.68
2022-08-31T06:57:15.111Z,64.79
2022-08-31T07:00:08.196Z,67.64
2022-08-31T07:02:45.178Z,65.79
2022-08-31T07:05:24.457Z,67.49
2022-08-31T07:07:53.108Z,69.38
2022-08-31T07:10:20.727Z,65.67
2022-08-31T07:12:48.795Z,66.11
2022-08-31T07:15:16.334Z,65.43
2022-08-31T07:17:44.014Z,65.78
2022-08-31T07:20:12.725Z,66.68
2022-08-31T07:22:40.592Z,64.58
2022-08-31T07:25:30.021Z,65.26
2022-08-31T07:28:00.535Z,64.19
2022-08-31T07:30:33.218Z,65.18
2022-08-31T07:33:07.116Z,64.22
2022-08-31T07:35:37.756Z,62.36
2022-08-31T07:38:29.351Z,62.09
2022-08-31T07:41:16.374Z,63.87
2022-08-31T07:43:45.541Z,61.03
2022-08-31T07:46:15.380Z,61.33
2022-08-31T07:48:44.470Z,59.22
2022-08-31T07:51:35.569Z,58.87
2022-08-31T07:54:24.152Z,59.59
2022-08-31T07:57:10.267Z,56.49
2022-08-31T07:59:39.628Z,55.54
2022-08-31T08:02:11.085Z,57.00
2022-08-31T08:04:43.131Z,53.53
2022-08-31T08:07:43.179Z,55.50
2022-08-31T08:10:35.030Z,55.04
2022-08-31T08:13:07.935Z,55.48
2022-08-31T08:16:11.751Z,53.27
2022-08-31T08:18:58.768Z,51.14
2022-08-31T08:21:29.480Z,51.57
2022-08-31T08:23:58.459Z,50.68
2022-08-31T08:26:33.119Z,49.68
2022-08-31T08:29:09.173Z,48.16
2022-08-31T08:31:52.235Z,46.17
2022-08-31T08:34:22.023Z,46.24
2022-08-31T08:36:59.192Z,47.03
2022-08-31T08:39:27.386Z,47.11
2022-08-31T08:42:16.195Z,47.70
2022-08-31T08:44:45.094Z,48.10
2022-08-31T08:47:20.715Z,46.61
2022-08-31T08:49:57.995Z,44.00
2022-08-31T08:52:42.487Z,44.06
2022-08-31T08:55:19.148Z,44.09
2022-08-31T08:57:52.227Z,44.50
2022-08-31T09:00:26.740Z,45.24
2022-08-31T09:03:44.334Z,44.64
2022-08-31T09:07:35.167Z,42.80
2022-08-31T09:10:19.684Z,43.24
2022-08-31T09:13:01.983Z,43.49
2022-08-31T09:15:47.907Z,42.19
2022-08-31T09:18:40.735Z,42.61
2022-08-31T09:21:43.211Z,42.81
2022-08-31T09:24:19.364Z,43.51
2022-08-31T09:27:18.202Z,43.83
2022-08-31T09:29:59.613Z,43.18
2022-08-31T09:32:31.901Z,42.04
2022-08-31T09:35:09.325Z,42.15
2022-08-31T09:37:46.352Z,41.98
2022-08-31T09:40:23.316Z,41.07
2022-08-31T09:43:13.079Z,41.29
2022-08-31T09:46:31.536Z,40.92
2022-08-31T09:49:03.215Z,40.46
2022-08-31T09:51:39.466Z,42.38
2022-08-31T09:54:41.123Z,41.02
2022-08-31T09:57:12.275Z,38.23
2022-08-31T09:59:48.086Z,40.68
2022-08-31T10:02:26.659Z,39.70
2022-08-31T10:05:04.390Z,40.08
2022-08-31T10:07:53.588Z,38.75
2022-08-31T10:10:33.167Z,37.42
2022-08-31T10:13:06.300Z,38.59
2022-08-31T10:15:54.839Z,38.38
2022-08-31T10:18:50.913Z,37.34
2022-08-31T10:21:52.653Z,39.59
2022-08-31T10:24:39.249Z,35.81
2022-08-31T10:27:10.170Z,37.42
2022-08-31T10:30:09.356Z,39.52
2022-08-31T10:32:47.705Z,37.16
2022-08-31T10:35:37.386Z,36.44
2022-08-31T10:38:32.655Z,37.04
2022-08-31T10:41:12.306Z,35.90
2022-08-31T10:44:26.367Z,35.27
2022-08-31T10:47:03.816Z,35.96
2022-08-31T10:49:35.482Z,32.83
2022-08-31T10:52:18.253Z,37.24
2022-08-31T10:54:57.707Z,37.06
2022-08-31T10:57:51.096Z,36.58
2022-08-31T11:00:45.258Z,36.16
2022-08-31T11:03:37.023Z,36.75
2022-08-31T11:07:06.377Z,34.90
2022-08-31T11:09:44.642Z,35.73
2022-08-31T11:12:21.683Z,36.21
2022-08-31T11:15:24.810Z,33.98
2022-08-31T11:18:04.378Z,32.64
2022-08-31T11:21:04.471Z,33.35
2022-08-31T11:23:50.991Z,31.39
2022-08-31T11:26:59.830Z,31.84
2022-08-31T11:29:36.563Z,31.99
2022-08-31T11:35:15.933Z,33.51
2022-08-31T11:37:51.019Z,33.10
2022-08-31T11:40:58.147Z,31.19
2022-08-31T11:43:36.413Z,29.56
2022-08-31T11:46:26.782Z,29.91
2022-08-31T11:48:55.298Z,29.22
2022-08-31T11:51:40.124Z,28.78
2022-08-31T11:54:49.070Z,28.77
2022-08-31T11:57:35.618Z,28.11
2022-08-31T12:00:20.795Z,27.63
2022-08-31T12:03:09.647Z,26.58
2022-08-31T12:05:56.370Z,26.57
2022-08-31T12:08:32.542Z,26.62
2022-08-31T12:11:37.008Z,26.54
2022-08-31T12:14:56.771Z,25.74
2022-08-31T12:18:09.188Z,25.63
2022-08-31T12:21:39.482Z,24.94
2022-08-31T12:24:51.331Z,27.08
2022-08-31T12:27:47.779Z,28.44
2022-08-31T12:30:15.442Z,29.44
2022-08-31T12:32:47.209Z,29.32
2022-08-31T12:36:00.798Z,30.16
2022-08-31T12:38:30.325Z,28.13
2022-08-31T12:40:58.812Z,31.46
2022-08-31T12:43:55.681Z,30.64
2022-08-31T12:46:47.337Z,30.48
2022-08-31T12:49:26.738Z,31.75
2022-08-31T12:52:35.384Z,32.70
2022-08-31T12:55:23.336Z,33.85
2022-08-31T12:58:16.121Z,37.13
2022-08-31T13:00:45.018Z,37.59
2022-08-31T13:03:29.267Z,38.08
2022-08-31T13:06:13.634Z,39.75
2022-08-31T13:08:50.022Z,38.41
2022-08-31T13:11:22.670Z,38.25
2022-08-31T13:13:53.000Z,37.58
2022-08-31T13:16:21.782Z,38.37
2022-08-31T13:18:57.753Z,38.98
2022-08-31T13:21:34.757Z,39.16
2022-08-31T13:24:11.636Z,38.96
2022-08-31T13:26:39.535Z,40.33
2022-08-31T13:29:10.159Z,40.90
2022-08-31T13:31:51.156Z,41.02
2022-08-31T13:34:21.138Z,42.02
2022-08-31T13:36:53.785Z,42.52
2022-08-31T13:39:39.216Z,42.19
2022-08-31T13:42:11.092Z,42.88
2022-08-31T13:44:44.360Z,42.09
2022-08-31T13:47:32.038Z,43.53
2022-08-31T13:50:18.134Z,44.53
2022-08-31T13:53:25.879Z,45.11
2022-08-31T13:55:51.615Z,44.87
2022-08-31T13:58:29.748Z,44.82
2022-08-31T14:01:25.083Z,43.88
2022-08-31T14:04:00.149Z,45.17
2022-08-31T14:06:35.616Z,44.72
2022-08-31T14:09:18.022Z,48.63
2022-08-31T14:12:00.197Z,50.19
2022-08-31T14:14:35.581Z,51.13
2022-08-31T14:17:03.646Z,52.95
2022-08-31T14:19:38.882Z,53.91
2022-08-31T14:22:33.132Z,57.03
2022-08-31T14:25:02.723Z,56.77
2022-08-31T14:27:31.026Z,58.91
2022-08-31T14:29:59.715Z,60.79
2022-08-31T14:32:29.116Z,61.23
2022-08-31T14:34:59.144Z,63.65
2022-08-31T14:37:30.217Z,64.15
2022-08-31T14:40:05.506Z,65.26
2022-08-31T14:42:38.571Z,65.93
2022-08-31T14:45:18.817Z,67.26
2022-08-31T14:47:52.449Z,66.38
2022-08-31T14:50:27.183Z,66.18
2022-08-31T14:52:57.622Z,65.64
2022-08-31T14:55:27.851Z,65.92
2022-08-31T14:58:07.104Z,65.29
2022-08-31T15:00:51.069Z,66.18
2022-08-31T15:03:24.591Z,64.40
2022-08-31T15:05:52.291Z,65.85
2022-08-31T15:08:26.239Z,65.81
2022-08-31T15:11:09.940Z,66.02
2022-08-31T15:13:39.975Z,66.46
2022-08-31T15:16:11.450Z,65.80
2022-08-31T15:18:42.419Z,67.06
2022-08-31T15:21:12.218Z,65.33
2022-08-31T15:23:41.866Z,65.21
2022-08-31T15:26:15.633Z,66.15
2022-08-31T15:28:43.537Z,67.33
2022-08-31T15:31:21.310Z,68.19
2022-08-31T15:33:49.722Z,66.64
2022-08-31T15:36:21.091Z,66.28
2022-08-31T15:38:51.941Z,67.54
2022-08-31T15:41:20.469Z,68.50
2022-08-31T15:43:51.565Z,68.23
2022-08-31T15:46:43.637Z,67.93
2022-08-31T15:49:12.776Z,69.69
2022-08-31T15:51:50.255Z,68.98
2022-08-31T15:54:22.505Z,69.31
2022-08-31T15:56:53.233Z,69.72
2022-08-31T15:59:23.994Z,70.32
2022-08-31T16:01:53.022Z,70.43
2022-08-31T16:04:23.722Z,70.25
2022-08-31T16:06:53.120Z,70.85
2022-08-31T16:09:21.341Z,71.16
2022-08-31T16:11:50.879Z,72.85
2022-08-31T16:14:20.349Z,72.22
2022-08-31T16:16:50.417Z,72.83
2022-08-31T16:19:34.629Z,73.87
2022-08-31T16:22:07.728Z,74.99
2022-08-31T16:24:37.357Z,75.29
2022-08-31T16:27:11.511Z,75.98
2022-08-31T16:29:40.818Z,75.63
2022-08-31T16:32:09.477Z,76.00
2022-08-31T16:34:39.770Z,77.76
2022-08-31T16:37:11.502Z,78.62
2022-08-31T16:39:49.199Z,79.03
2022-08-31T16:42:17.702Z,78.81
2022-08-31T16:44:48.090Z,78.66
2022-08-31T16:47:19.483Z,78.24
2022-08-31T16:49:48.587Z,79.67
2022-08-31T16:52:26.736Z,79.71
2022-08-31T16:54:57.431Z,79.76
2022-08-31T16:57:32.840Z,80.20
2022-08-31T17:00:03.588Z,81.18
2022-08-31T17:02:33.073Z,80.85
2022-08-31T17:05:04.696Z,80.22
2022-08-31T17:07:35.627Z,81.02
2022-08-31T17:10:08.798Z,80.91
2022-08-31T17:12:38.768Z,79.47
2022-08-31T17:15:09.469Z,79.63
2022-08-31T17:17:42.351Z,79.78
2022-08-31T17:20:13.179Z,79.81
2022-08-31T17:22:48.159Z,80.75
2022-08-31T17:25:15.830Z,80.49
2022-08-31T17:27:51.183Z,80.51
2022-08-31T17:30:21.436Z,80.22
2022-08-31T17:33:13.166Z,79.96
2022-08-31T17:35:43.807Z,79.19
2022-08-31T17:38:16.120Z,80.09
2022-08-31T17:40:44.877Z,79.85
2022-08-31T17:43:15.581Z,80.34
2022-08-31T17:45:43.275Z,81.12
2022-08-31T17:48:10.814Z,79.92
2022-08-31T17:50:45.313Z,80.24
2022-08-31T17:53:13.134Z,79.73
2022-08-31T17:55:43.738Z,79.44
2022-08-31T17:58:11.601Z,79.68
2022-08-31T18:00:40.042Z,79.29
2022-08-31T18:03:08.352Z,78.79
2022-08-31T18:05:37.331Z,79.79
2022-08-31T18:08:06.727Z,79.18
2022-08-31T18:10:35.331Z,78.71
2022-08-31T18:13:03.387Z,78.97
2022-08-31T18:15:34.937Z,79.12
2022-08-31T18:18:04.304Z,78.75
2022-08-31T18:20:33.355Z,77.89
2022-08-31T18:23:01.986Z,77.66
2022-08-31T18:25:35.957Z,78.47
2022-08-31T18:28:05.454Z,78.25
2022-08-31T18:30:41.351Z,79.03
2022-08-31T18:33:14.769Z,77.96
2022-08-31T18:35:46.557Z,78.84
2022-08-31T18:38:14.275Z,80.89
2022-08-31T18:41:00.739Z,81.63
2022-08-31T18:43:46.871Z,83.30
2022-08-31T18:46:14.694Z,86.02
2022-08-31T18:48:54.247Z,87.73
2022-08-31T18:51:23.398Z,89.87
2022-08-31T18:53:56.062Z,89.61
2022-08-31T18:56:29.026Z,88.52
2022-08-31T18:59:02.682Z,90.00
2022-08-31T19:01:33.991Z,91.14
2022-08-31T19:04:12.576Z,91.58
2022-08-31T19:06:42.898Z,91.81
2022-08-31T19:09:12.856Z,93.17
2022-08-31T19:11:49.443Z,94.04
2022-08-31T19:14:23.412Z,94.78
2022-08-31T19:17:01.682Z,94.97
2022-08-31T19:19:33.634Z,94.27
2022-08-31T19:22:01.295Z,95.14
2022-08-31T19:24:31.803Z,95.11
2022-08-31T19:27:02.954Z,96.51
2022-08-31T19:29:34.629Z,98.27
2022-08-31T19:32:25.193Z,97.69
2022-08-31T19:34:55.120Z,96.47
2022-08-31T19:37:22.764Z,97.95
2022-08-31T19:39:53.931Z,98.33
2022-08-31T19:42:59.661Z,99.96
2022-08-31T19:45:23.277Z,99.84
2022-08-31T19:47:55.228Z,99.86
2022-08-31T19:50:22.989Z,99.44
2022-08-31T19:52:54.553Z,97.82
2022-08-31T19:55:22.403Z,98.75
2022-08-31T19:57:52.094Z,100.00
2022-08-31T20:00:22.743Z,100.00
2022-08-31T20:02:50.541Z,100.00
2022-08-31T20:05:20.929Z,100.00
2022-08-31T20:07:48.476Z,100.00
2022-08-31T20:10:18.062Z,100.00
2022-08-31T20:12:47.290Z,100.00
2022-08-31T20:15:17.207Z,100.00
2022-08-31T20:17:48.147Z,100.00
2022-08-31T20:20:20.145Z,100.00
2022-08-31T20:22:48.420Z,100.00
2022-08-31T20:25:19.235Z,100.00
2022-08-31T20:27:50.687Z,100.00
2022-08-31T20:30:19.945Z,100.00
2022-08-31T20:32:51.049Z,100.00
2022-08-31T20:35:19.082Z,100.00
2022-08-31T20:37:46.744Z,100.00
2022-08-31T20:40:17.220Z,100.00
2022-08-31T20:42:48.360Z,100.00
2022-08-31T20:45:17.977Z,100.00
2022-08-31T20:48:04.127Z,100.00
2022-08-31T20:50:32.179Z,100.00
2022-08-31T20:53:01.069Z,100.00
2022-08-31T20:55:31.154Z,100.00
2022-08-31T20:57:58.758Z,100.00
2022-08-31T21:00:26.334Z,100.00
2022-08-31T21:02:55.506Z,100.00
2022-08-31T21:05:40.324Z,100.00
2022-08-31T21:08:09.408Z,100.00
2022-08-31T21:10:40.328Z,100.00
2022-08-31T21:13:11.979Z,100.00
2022-08-31T21:15:47.117Z,100.00
2022-08-31T21:18:19.102Z,100.00
2022-08-31T21:20:51.605Z,100.00
2022-08-31T21:23:19.391Z,100.00
2022-08-31T21:25:47.373Z,100.00
2022-08-31T21:28:18.176Z,100.00
2022-08-31T21:30:49.456Z,100.00
2022-08-31T21:33:17.699Z,100.00
2022-08-31T21:35:45.366Z,100.00
2022-08-31T21:38:13.281Z,100.00
2022-08-31T21:40:49.095Z,100.00
2022-08-31T21:43:16.812Z,100.00
2022-08-31T21:45:44.438Z,100.00
2022-08-31T21:48:11.978Z,100.00
2022-08-31T21:50:39.564Z,100.00
2022-08-31T21:53:07.075Z,100.00
2022-08-31T21:55:38.833Z,100.00
2022-08-31T21:58:06.442Z,100.00
2022-08-31T22:00:35.004Z,100.00
2022-08-31T22:03:02.881Z,100.00
2022-08-31T22:05:33.036Z,100.00
2022-08-31T22:08:01.613Z,100.00
2022-08-31T22:10:30.545Z,100.00
2022-08-31T22:12:58.502Z,100.00
2022-08-31T22:15:26.176Z,100.00
2022-08-31T22:18:17.895Z,100.00
2022-08-31T22:20:43.115Z,100.00
2022-08-31T22:23:11.505Z,100.00
2022-08-31T22:25:42.134Z,100.00
2022-08-31T22:28:10.302Z,100.00
2022-08-31T22:33:08.674Z,100.00
2022-08-31T22:35:39.511Z,100.00
2022-08-31T22:38:08.722Z,100.00
2022-08-31T22:40:39.491Z,100.00
2022-08-31T22:43:09.421Z,100.00
2022-08-31T22:45:48.651Z,100.00
2022-08-31T22:48:17.339Z,100.00
2022-08-31T22:50:47.894Z,100.00
2022-08-31T22:53:16.040Z,100.00
2022-08-31T22:58:12.618Z,100.00
2022-08-31T23:00:40.790Z,100.00
2022-08-31T23:03:14.134Z,100.00
2022-08-31T23:05:43.766Z,100.00
2022-08-31T23:08:12.501Z,100.00
2022-08-31T23:10:43.914Z,100.00
2022-08-31T23:13:11.438Z,100.00
2022-08-31T23:15:40.237Z,100.00
2022-08-31T23:18:10.019Z,100.00
2022-08-31T23:20:39.116Z,100.00
2022-08-31T23:23:06.891Z,100.00
2022-08-31T23:25:35.973Z,100.00
2022-08-31T23:28:03.773Z,100.00
2022-08-31T23:30:31.329Z,100.00
2022-08-31T23:33:02.151Z,100.00
2022-08-31T23:35:29.681Z,100.00
2022-08-31T23:37:57.631Z,100.00
2022-08-31T23:40:27.201Z,100.00
2022-08-31T23:42:55.088Z,100.00
2022-08-31T23:45:22.597Z,100.00
2022-08-31T23:47:51.565Z,100.00
2022-08-31T23:50:19.766Z,100.00
2022-08-31T23:52:47.544Z,100.00
2022-08-31T23:55:15.586Z,100.00
2022-08-31T23:57:44.501Z,100.00
